Terminal Aerodrome Forecast
Issued by NWS

Home | Current Version | Previous Version | Text Only | Print | Product List | Glossary On
Versions: 1 2 3 4 5 6 7 8 9 10 11 12 13 14 15 16 17 18 19 20 21 22 23 24 25 26 27
000
FTUS43 KLOT 270520
TAFMDW
TAF
KMDW 270520Z 2706/2806 25011KT P6SM SKC
     FM271400 27015G25KT P6SM SKC
     FM280000 28010KT P6SM VCSH OVC040
     FM280400 29010KT 6SM -SHRA BKN015=

USA.gov is the U.S. government's official web portal to all federal, state and local government web resources and services.